Time;durP1;ratioP1;P1;durP2;ratioP2;P2;SDS_P1;SDS_P2;PMS_P1;PMS_P2;Temp;Humidity;BMP_temperature;BMP_pressure;BME280_temperature;BME280_humidity;BME280_pressure;Samples;Min_cycle;Max_cycle;Signal;HPM_P1;HPM_P2
2023/03/10 00:01:12;;;;;;;3.38;0.90;;;;;;;9.57;100.00;96831.53;4921925;29;20032;-81
2023/03/10 00:03:38;;;;;;;2.60;0.77;;;;;;;9.61;100.00;96844.28;4930791;29;20040;-80
2023/03/10 00:06:04;;;;;;;5.95;1.30;;;;;;;9.46;100.00;96819.75;4938410;29;20031;-81
2023/03/10 00:08:29;;;;;;;3.65;0.70;;;;;;;9.39;100.00;96817.22;4940047;28;20119;-80
2023/03/10 00:10:54;;;;;;;5.38;1.20;;;;;;;9.26;100.00;96773.53;4935655;29;20039;-80
2023/03/10 00:13:20;;;;;;;6.00;1.40;;;;;;;9.34;100.00;96795.53;4930107;28;20118;-81
2023/03/10 00:15:47;;;;;;;1.48;0.90;;;;;;;9.50;100.00;96790.38;4937801;28;20031;-82
2023/03/10 00:18:12;;;;;;;4.88;1.33;;;;;;;9.37;100.00;96764.53;4939519;29;20110;-78
2023/03/10 00:20:37;;;;;;;6.28;1.02;;;;;;;9.65;100.00;96798.72;4936369;29;20086;-80
2023/03/10 00:23:03;;;;;;;5.68;0.95;;;;;;;9.35;100.00;96731.56;4948692;28;20027;-79
2023/03/10 00:25:28;;;;;;;7.13;1.40;;;;;;;9.51;100.00;96751.53;4933702;28;20032;-80
2023/03/10 00:27:53;;;;;;;4.47;0.88;;;;;;;9.44;100.00;96743.59;4956967;28;20031;-80
2023/03/10 00:30:19;;;;;;;3.70;1.33;;;;;;;9.61;100.00;96765.16;4955696;28;20067;-80
2023/03/10 00:32:44;;;;;;;2.67;0.82;;;;;;;9.59;100.00;96760.03;4934433;29;20031;-81
2023/03/10 00:35:09;;;;;;;4.05;0.90;;;;;;;9.61;100.00;96744.38;4949708;28;20405;-80
2023/03/10 00:37:36;;;;;;;1.88;0.63;;;;;;;9.48;100.00;96712.34;4932901;28;20027;-80
2023/03/10 00:40:04;;;;;;;6.00;1.17;;;;;;;9.65;100.00;96740.13;4936703;29;20028;-78
2023/03/10 00:42:29;;;;;;;4.95;1.00;;;;;;;9.68;100.00;96722.63;4950175;28;20027;-80
2023/03/10 00:44:54;;;;;;;5.32;0.85;;;;;;;9.75;100.00;96750.28;4938694;28;20027;-79
2023/03/10 00:47:20;;;;;;;3.22;0.88;;;;;;;9.77;100.00;96733.81;4935907;29;20024;-79
2023/03/10 00:49:46;;;;;;;5.72;1.13;;;;;;;9.76;100.00;96749.19;4953470;28;20520;-80
2023/03/10 00:52:12;;;;;;;1.98;0.73;;;;;;;9.61;100.00;96724.69;4949451;28;20038;-80
2023/03/10 00:54:40;;;;;;;3.10;0.90;;;;;;;9.60;100.00;96720.34;4968427;28;20039;-79
2023/03/10 00:57:06;;;;;;;7.13;0.90;;;;;;;9.62;100.00;96723.63;4924900;29;20111;-80
2023/03/10 00:59:32;;;;;;;1.45;0.50;;;;;;;9.66;100.00;96722.06;4934081;28;20105;-79
2023/03/10 01:01:57;;;;;;;1.63;0.63;;;;;;;9.66;100.00;96714.75;4934449;29;20486;-80
2023/03/10 01:04:22;;;;;;;4.65;0.75;;;;;;;9.62;100.00;96705.53;4941650;28;20127;-80
2023/03/10 01:06:48;;;;;;;5.60;1.08;;;;;;;9.50;100.00;96671.63;4936128;28;20028;-80
2023/03/10 01:09:14;;;;;;;3.85;1.00;;;;;;;9.73;100.00;96714.59;4933934;29;20069;-80
2023/03/10 01:11:39;;;;;;;4.68;1.25;;;;;;;9.68;100.00;96711.81;4933177;29;20024;-79
2023/03/10 01:14:07;;;;;;;3.15;0.88;;;;;;;9.63;100.00;96711.75;4945590;29;20028;-79
2023/03/10 01:16:33;;;;;;;4.20;1.08;;;;;;;9.43;100.00;96671.78;4932802;29;20048;-81
2023/03/10 01:18:58;;;;;;;5.10;1.00;;;;;;;9.69;100.00;96710.75;4923676;28;20390;-79
2023/03/10 01:21:27;;;;;;;3.13;0.80;;;;;;;9.70;100.00;96698.91;4927730;29;20028;-80
2023/03/10 01:23:52;;;;;;;4.15;0.90;;;;;;;9.61;100.00;96685.00;4933921;29;20032;-80
2023/03/10 01:26:18;;;;;;;5.40;0.93;;;;;;;9.65;100.00;96686.13;4929705;28;20065;-79
2023/03/10 01:28:44;;;;;;;4.72;0.90;;;;;;;9.50;100.00;96647.31;4931620;29;20035;-80
2023/03/10 01:31:10;;;;;;;5.80;1.10;;;;;;;9.54;100.00;96645.78;4933116;28;20068;-80
2023/03/10 01:33:41;;;;;;;3.30;0.90;;;;;;;9.46;100.00;96611.94;4924561;28;20031;-79
2023/03/10 01:36:16;;;;;;;2.50;1.00;;;;;;;9.77;100.00;96663.59;4927212;28;20031;-80
2023/03/10 01:38:43;;;;;;;2.38;0.80;;;;;;;9.77;100.00;96667.13;4933401;29;20046;-79
2023/03/10 01:41:09;;;;;;;3.78;0.80;;;;;;;9.60;100.00;96639.38;4933977;29;20472;-81
2023/03/10 01:43:42;;;;;;;3.58;0.85;;;;;;;9.76;100.00;96665.50;4926044;29;20085;-80
2023/03/10 01:46:28;;;;;;;4.75;1.05;;;;;;;9.74;100.00;96650.59;4934017;29;20066;-79
2023/03/10 01:48:56;;;;;;;1.48;0.75;;;;;;;9.69;100.00;96651.34;4937472;28;20043;-81
2023/03/10 01:51:22;;;;;;;2.63;0.70;;;;;;;9.75;100.00;96653.06;4947030;28;20080;-82
2023/03/10 01:53:48;;;;;;;3.80;1.08;;;;;;;9.58;100.00;96628.00;4951276;29;20051;-80
2023/03/10 01:56:14;;;;;;;3.35;1.33;;;;;;;9.54;100.00;96632.28;4961751;28;20110;-80
2023/03/10 01:58:43;;;;;;;4.03;0.88;;;;;;;9.56;100.00;96630.13;4931983;28;20146;-80
2023/03/10 02:01:10;;;;;;;3.40;0.65;;;;;;;9.66;100.00;96646.44;4933337;29;20115;-81
2023/03/10 02:04:00;;;;;;;2.30;0.85;;;;;;;9.64;100.00;96635.91;4932379;28;20030;-80
2023/03/10 02:06:26;;;;;;;3.17;0.60;;;;;;;9.63;100.00;96633.47;4935320;29;20031;-80
2023/03/10 02:08:55;;;;;;;3.08;0.82;;;;;;;9.48;100.00;96614.38;4933763;29;20057;-79
2023/03/10 02:11:21;;;;;;;4.70;0.80;;;;;;;9.73;100.00;96636.28;4937563;28;20036;-81
2023/03/10 02:13:47;;;;;;;4.32;1.10;;;;;;;9.48;100.00;96598.16;4939854;28;20038;-82
2023/03/10 02:16:13;;;;;;;2.33;0.80;;;;;;;9.68;100.00;96620.03;4935875;28;20095;-81
2023/03/10 02:18:42;;;;;;;2.92;1.38;;;;;;;9.54;100.00;96614.19;4940364;28;20032;-81
2023/03/10 02:21:26;;;;;;;5.35;0.60;;;;;;;9.70;100.00;96623.31;4978619;28;20095;-81
2023/03/10 02:24:14;;;;;;;5.45;0.85;;;;;;;9.74;100.00;96624.41;4936818;29;20039;-81
2023/03/10 02:26:42;;;;;;;3.63;1.00;;;;;;;9.78;100.00;96628.25;4936008;28;20039;-81
2023/03/10 02:29:17;;;;;;;1.30;0.60;;;;;;;9.68;100.00;96594.91;4935301;28;20028;-81
2023/03/10 02:31:43;;;;;;;3.60;0.65;;;;;;;9.84;100.00;96629.94;4952871;29;20031;-81
2023/03/10 02:34:09;;;;;;;1.60;0.50;;;;;;;9.76;100.00;96616.88;4992612;28;20054;-81
2023/03/10 02:36:34;;;;;;;2.55;0.50;;;;;;;9.81;100.00;96616.94;4934870;28;20023;-81
2023/03/10 02:38:59;;;;;;;4.28;0.57;;;;;;;9.77;100.00;96607.72;4936377;28;20027;-81
2023/03/10 02:41:32;;;;;;;2.08;0.57;;;;;;;9.80;100.00;96601.81;4960950;28;20030;-80
2023/03/10 02:44:01;;;;;;;2.35;0.82;;;;;;;9.66;100.00;96585.16;4937037;28;20036;-82
2023/03/10 02:46:27;;;;;;;1.48;0.45;;;;;;;9.83;100.00;96605.91;4953352;28;20023;-80
2023/03/10 02:48:52;;;;;;;2.13;0.60;;;;;;;9.77;100.00;96590.69;4937045;28;20032;-81
2023/03/10 02:51:25;;;;;;;1.92;0.50;;;;;;;9.82;100.00;96605.09;4936317;28;20062;-82
2023/03/10 02:53:50;;;;;;;2.67;0.47;;;;;;;9.77;100.00;96596.94;4946951;28;20020;-81
2023/03/10 02:56:16;;;;;;;3.33;0.95;;;;;;;9.79;100.00;96593.97;4935876;29;20559;-81
2023/03/10 02:58:41;;;;;;;1.20;0.50;;;;;;;9.56;100.00;96551.84;4932462;28;20063;-80
2023/03/10 03:01:07;;;;;;;0.70;0.25;;;;;;;9.80;100.00;96596.41;4931732;29;20031;-80
2023/03/10 03:03:32;;;;;;;1.45;0.40;;;;;;;9.82;100.00;96590.75;4937288;29;20487;-81
2023/03/10 03:05:58;;;;;;;1.02;0.47;;;;;;;9.72;100.00;96577.97;4936938;28;20089;-80
2023/03/10 03:08:23;;;;;;;3.80;0.45;;;;;;;9.66;100.00;96573.56;4936874;29;20034;-80
2023/03/10 03:10:49;;;;;;;1.35;0.50;;;;;;;9.61;100.00;96570.78;4937862;29;20477;-81
2023/03/10 03:13:15;;;;;;;0.57;0.38;;;;;;;9.61;100.00;96571.59;4936137;28;20034;-81
2023/03/10 03:15:40;;;;;;;0.88;0.25;;;;;;;9.64;100.00;96562.19;4930592;28;20090;-80
2023/03/10 03:18:06;;;;;;;0.85;0.45;;;;;;;9.74;100.00;96592.00;4936587;29;20032;-80
2023/03/10 03:20:32;;;;;;;2.13;0.30;;;;;;;9.68;100.00;96582.22;4926432;28;20027;-79
2023/03/10 03:22:58;;;;;;;0.68;0.30;;;;;;;9.70;100.00;96582.00;4931015;28;20081;-80
2023/03/10 03:25:26;;;;;;;0.77;0.30;;;;;;;9.68;100.00;96582.22;4932485;29;20027;-80
2023/03/10 03:27:52;;;;;;;0.57;0.20;;;;;;;9.55;100.00;96574.50;4929002;29;20055;-81
2023/03/10 03:30:21;;;;;;;1.90;0.20;;;;;;;9.70;100.00;96585.50;4936738;29;20039;-81
2023/03/10 03:32:46;;;;;;;1.05;0.30;;;;;;;9.56;100.00;96558.06;4948139;28;20064;-82
2023/03/10 03:35:19;;;;;;;1.02;0.40;;;;;;;9.62;100.00;96577.84;4935576;28;20098;-80
2023/03/10 03:37:45;;;;;;;0.77;0.28;;;;;;;9.64;100.00;96575.69;4937090;29;20024;-80
2023/03/10 03:40:12;;;;;;;0.40;0.20;;;;;;;9.73;100.00;96584.19;4942273;28;20610;-80
2023/03/10 03:42:39;;;;;;;0.25;0.10;;;;;;;9.61;100.00;96565.41;4932822;28;20038;-80
2023/03/10 03:45:05;;;;;;;0.43;0.30;;;;;;;9.62;100.00;96565.16;4938548;28;20055;-81
2023/03/10 03:47:30;;;;;;;1.00;0.40;;;;;;;9.63;100.00;96563.25;4928484;29;20497;-80
2023/03/10 03:49:56;;;;;;;0.88;0.25;;;;;;;9.38;100.00;96534.91;4925082;28;20032;-82
2023/03/10 03:52:22;;;;;;;0.77;0.40;;;;;;;9.23;100.00;96526.63;4939940;29;20100;-82
2023/03/10 03:54:47;;;;;;;0.30;0.30;;;;;;;9.42;100.00;96560.31;4935173;28;20055;-79
2023/03/10 03:57:12;;;;;;;1.73;0.50;;;;;;;8.85;100.00;96482.44;4936514;29;20028;-81
2023/03/10 03:59:37;;;;;;;0.50;0.30;;;;;;;9.25;100.00;96545.25;4939664;29;20040;-82
2023/03/10 04:02:03;;;;;;;1.77;0.28;;;;;;;9.26;100.00;96553.09;4949106;28;20390;-80
2023/03/10 04:04:28;;;;;;;1.85;0.40;;;;;;;9.26;100.00;96546.91;4960054;28;20066;-82
2023/03/10 04:06:53;;;;;;;1.38;0.47;;;;;;;9.21;100.00;96550.34;4939882;29;20067;-81
2023/03/10 04:09:19;;;;;;;0.28;0.20;;;;;;;9.24;100.00;96544.44;4953564;28;20028;-81
2023/03/10 04:11:44;;;;;;;1.27;0.60;;;;;;;9.02;100.00;96519.34;4939692;29;20090;-82
2023/03/10 04:14:09;;;;;;;1.73;0.20;;;;;;;9.15;100.00;96544.06;4940331;28;20019;-80
2023/03/10 04:16:34;;;;;;;2.78;0.30;;;;;;;9.10;100.00;96532.41;4938698;28;20091;-81
2023/03/10 04:19:00;;;;;;;0.47;0.40;;;;;;;9.14;100.00;96549.69;4935420;28;20051;-80
2023/03/10 04:21:26;;;;;;;0.38;0.20;;;;;;;9.06;100.00;96539.34;4939098;28;20544;-81
2023/03/10 04:23:51;;;;;;;0.90;0.52;;;;;;;9.02;100.00;96541.72;4937340;28;20028;-81
2023/03/10 04:26:16;;;;;;;0.75;0.50;;;;;;;8.98;100.00;96544.09;4938621;28;20024;-81
2023/03/10 04:28:42;;;;;;;1.08;0.47;;;;;;;8.83;100.00;96516.94;4938975;29;20091;-80
2023/03/10 04:31:15;;;;;;;0.63;0.30;;;;;;;9.05;100.00;96559.28;4939145;28;20063;-80
2023/03/10 04:33:41;;;;;;;3.65;0.32;;;;;;;8.93;100.00;96538.66;4946396;28;20120;-81
2023/03/10 04:36:07;;;;;;;2.60;0.40;;;;;;;8.97;100.00;96534.38;4937236;28;20028;-81
2023/03/10 04:38:32;;;;;;;0.28;0.20;;;;;;;9.03;100.00;96540.66;4939304;28;20020;-82
2023/03/10 04:40:57;;;;;;;0.60;0.30;;;;;;;8.91;100.00;96519.22;4937664;28;20036;-80
2023/03/10 04:43:24;;;;;;;0.52;0.25;;;;;;;9.00;100.00;96527.66;4937502;28;20031;-80
2023/03/10 04:45:49;;;;;;;2.95;0.43;;;;;;;9.04;100.00;96541.47;4937164;29;20089;-80
2023/03/10 04:48:15;;;;;;;4.47;0.43;;;;;;;9.14;100.00;96544.31;4932942;28;20044;-80
2023/03/10 04:50:40;;;;;;;0.60;0.30;;;;;;;9.03;100.00;96540.66;4933270;28;20039;-79
2023/03/10 04:53:06;;;;;;;0.43;0.25;;;;;;;8.99;100.00;96532.25;4945741;28;20548;-78
2023/03/10 04:55:31;;;;;;;1.17;0.30;;;;;;;8.91;100.00;96511.13;4932300;28;20111;-80
2023/03/10 04:57:56;;;;;;;0.63;0.30;;;;;;;9.06;100.00;96537.44;4926883;29;20174;-82
2023/03/10 05:00:22;;;;;;;2.00;0.40;;;;;;;8.96;100.00;96519.28;4931110;28;20324;-78
2023/03/10 05:02:47;;;;;;;2.33;0.40;;;;;;;8.80;100.00;96495.84;4930790;28;20032;-81
2023/03/10 05:05:12;;;;;;;2.78;0.63;;;;;;;8.89;100.00;96507.84;4935305;29;20498;-80
2023/03/10 05:07:38;;;;;;;1.75;0.50;;;;;;;8.87;100.00;96504.56;4934168;28;20118;-83
2023/03/10 05:10:06;;;;;;;1.08;0.30;;;;;;;8.93;100.00;96527.88;4934814;28;20566;-79
2023/03/10 05:12:32;;;;;;;0.88;0.30;;;;;;;8.89;100.00;96526.72;4933668;29;20058;-78
2023/03/10 05:14:57;;;;;;;1.25;0.30;;;;;;;8.67;100.00;96529.38;4936100;28;20667;-79
2023/03/10 05:17:23;;;;;;;1.33;0.40;;;;;;;8.16;100.00;96480.06;4948072;28;20028;-78
2023/03/10 05:19:48;;;;;;;1.08;0.20;;;;;;;8.36;100.00;96506.50;4938828;28;20038;-79
2023/03/10 05:22:14;;;;;;;2.40;0.30;;;;;;;8.40;100.00;96506.84;4936545;29;20039;-81
2023/03/10 05:24:39;;;;;;;1.20;0.30;;;;;;;8.32;100.00;96478.41;4948062;28;20118;-77
2023/03/10 05:27:07;;;;;;;1.17;0.30;;;;;;;8.43;100.00;96484.81;4968118;28;20044;-81
2023/03/10 05:29:33;;;;;;;0.70;0.30;;;;;;;8.30;100.00;96467.06;4949162;28;20023;-78
2023/03/10 05:31:58;;;;;;;1.15;0.50;;;;;;;8.34;100.00;96489.75;4932195;28;20039;-78
2023/03/10 05:34:25;;;;;;;3.72;0.45;;;;;;;8.19;100.00;96467.97;5004613;28;20032;-80
2023/03/10 05:36:51;;;;;;;2.15;0.50;;;;;;;8.29;100.00;96481.59;4953902;28;20032;-77
2023/03/10 05:39:16;;;;;;;2.35;0.60;;;;;;;8.33;100.00;96497.03;4935577;29;20079;-80
2023/03/10 05:41:42;;;;;;;0.85;0.47;;;;;;;8.37;100.00;96491.97;4936129;29;20051;-83
2023/03/10 05:44:07;;;;;;;2.10;0.65;;;;;;;7.98;100.00;96435.34;4936564;28;20497;-84
2023/03/10 05:46:32;;;;;;;1.30;0.60;;;;;;;8.25;100.00;96477.75;4931403;28;20047;-83
2023/03/10 05:48:57;;;;;;;1.42;0.70;;;;;;;8.22;100.00;96464.78;4938520;29;20436;-82
2023/03/10 05:51:23;;;;;;;3.42;0.52;;;;;;;8.34;100.00;96484.38;4940915;28;20051;-82
2023/03/10 05:53:48;;;;;;;1.90;0.82;;;;;;;8.26;100.00;96465.94;4942244;29;20543;-82
2023/03/10 05:56:17;;;;;;;2.13;0.52;;;;;;;8.31;100.00;96476.78;4937614;29;20031;-82
2023/03/10 05:58:43;;;;;;;3.13;1.10;;;;;;;8.52;100.00;96483.34;4980623;28;20028;-82
2023/03/10 06:01:09;;;;;;;2.80;0.77;;;;;;;8.28;100.00;96461.94;4935994;28;20619;-81
2023/03/10 06:03:35;;;;;;;1.20;0.50;;;;;;;8.49;100.00;96479.25;4942885;29;20031;-82
2023/03/10 06:06:01;;;;;;;2.58;0.50;;;;;;;8.44;100.00;96454.94;4936768;28;20027;-82
2023/03/10 06:08:27;;;;;;;2.03;0.73;;;;;;;8.23;100.00;96399.09;4938096;28;20042;-79
2023/03/10 06:10:53;;;;;;;0.75;0.55;;;;;;;8.73;100.00;96470.97;4959150;28;20030;-77
2023/03/10 06:13:19;;;;;;;2.15;0.70;;;;;;;8.82;100.00;96460.56;4923433;28;20051;-77
2023/03/10 06:15:49;;;;;;;4.60;0.60;;;;;;;8.66;100.00;96425.31;4930167;29;20031;-75
2023/03/10 06:18:15;;;;;;;6.78;1.00;;;;;;;8.88;100.00;96437.97;4931161;29;20031;-72
2023/03/10 06:20:40;;;;;;;2.92;0.73;;;;;;;8.97;100.00;96445.38;4929165;29;20448;-73
2023/03/10 06:23:05;;;;;;;3.58;0.50;;;;;;;9.09;100.00;96444.44;4929051;29;20028;-72
2023/03/10 06:25:31;;;;;;;1.02;0.32;;;;;;;9.11;100.00;96448.50;4950196;28;20031;-72
2023/03/10 06:27:56;;;;;;;4.15;0.70;;;;;;;9.23;100.00;96459.19;4929796;29;20028;-71
2023/03/10 06:30:21;;;;;;;1.05;0.25;;;;;;;9.30;100.00;96449.00;4936559;28;20499;-71
2023/03/10 06:32:47;;;;;;;1.90;0.40;;;;;;;9.25;100.00;96435.47;4923937;29;20028;-74
2023/03/10 06:35:14;;;;;;;4.53;0.98;;;;;;;9.34;100.00;96431.22;4930140;29;20098;-72
2023/03/10 06:37:40;;;;;;;4.93;1.48;;;;;;;9.26;100.00;96418.19;4929369;28;20066;-72
2023/03/10 06:40:08;;;;;;;3.55;1.13;;;;;;;9.21;100.00;96423.53;4926950;29;20481;-73
2023/03/10 06:42:34;;;;;;;4.55;0.80;;;;;;;9.09;100.00;96417.47;4921329;28;20032;-72
2023/03/10 06:44:59;;;;;;;2.13;1.00;;;;;;;8.99;100.00;96413.59;4929049;28;20034;-73
2023/03/10 06:47:25;;;;;;;2.30;0.75;;;;;;;8.99;100.00;96413.59;4964735;28;20034;-72
2023/03/10 06:49:50;;;;;;;1.10;0.40;;;;;;;9.04;100.00;96420.94;4929934;29;20445;-84
2023/03/10 06:52:15;;;;;;;3.97;0.57;;;;;;;8.83;100.00;96370.50;4932796;29;20063;-76
2023/03/10 06:54:40;;;;;;;1.58;0.68;;;;;;;9.34;100.00;96439.31;4934766;28;20397;-79
2023/03/10 06:57:06;;;;;;;3.00;0.90;;;;;;;9.34;100.00;96428.53;4935009;28;20398;-86
2023/03/10 06:59:31;;;;;;;3.60;1.00;;;;;;;9.29;100.00;96419.56;4933131;29;20078;-78
2023/03/10 07:01:57;;;;;;;1.65;0.65;;;;;;;9.24;100.00;96387.94;4938676;28;20086;-82
2023/03/10 07:04:22;;;;;;;2.47;0.63;;;;;;;9.12;100.00;96374.63;4946998;28;20058;-79
2023/03/10 07:06:48;;;;;;;2.38;0.60;;;;;;;9.24;100.00;96365.56;4932903;29;20070;-79
2023/03/10 07:09:13;;;;;;;2.22;0.82;;;;;;;9.40;100.00;96370.84;5016911;28;20032;-88
2023/03/10 07:11:39;;;;;;;3.65;0.60;;;;;;;11.73;100.00;96350.88;4931319;28;20024;-86
2023/03/10 07:14:04;;;;;;;1.42;0.73;;;;;;;15.45;100.00;96356.75;4934304;29;20039;-77
2023/03/10 07:16:29;;;;;;;1.15;0.60;;;;;;;16.94;100.00;96398.75;4932472;28;20035;-77
2023/03/10 07:18:55;;;;;;;1.15;0.50;;;;;;;15.46;100.00;96412.88;4933597;29;20397;-75
2023/03/10 07:21:21;;;;;;;2.45;0.63;;;;;;;13.06;100.00;96397.53;4988025;28;20042;-81
2023/03/10 07:23:47;;;;;;;1.75;0.70;;;;;;;11.40;100.00;96413.41;4933510;29;20099;-78
2023/03/10 07:26:13;;;;;;;2.35;0.52;;;;;;;10.50;100.00;96410.06;4934495;29;20054;-84
2023/03/10 07:28:39;;;;;;;1.02;0.40;;;;;;;9.88;100.00;96406.09;4975001;28;20027;-83
2023/03/10 07:31:06;;;;;;;2.15;0.73;;;;;;;9.91;100.00;96429.09;4953478;28;20016;-88
2023/03/10 07:33:32;;;;;;;1.17;0.55;;;;;;;9.79;100.00;96419.25;4953284;28;20083;-85
2023/03/10 07:36:02;;;;;;;0.95;0.68;;;;;;;9.86;100.00;96416.34;4953828;28;20455;-85
2023/03/10 07:38:27;;;;;;;1.17;0.35;;;;;;;9.93;100.00;96424.22;4937790;29;20093;-84
2023/03/10 07:40:53;;;;;;;0.57;0.30;;;;;;;10.12;100.00;96430.88;4939215;28;20492;-80
2023/03/10 07:43:18;;;;;;;1.60;0.50;;;;;;;10.24;100.00;96430.66;4936769;29;20043;-79
2023/03/10 07:45:43;;;;;;;2.42;0.30;;;;;;;9.83;100.00;96435.75;4936276;28;20110;-79
2023/03/10 07:48:08;;;;;;;0.35;0.35;;;;;;;9.84;100.00;96459.78;4954268;28;20080;-79
2023/03/10 07:50:34;;;;;;;2.50;0.50;;;;;;;9.85;100.00;96436.31;4938904;28;20032;-81
2023/03/10 07:52:59;;;;;;;1.55;0.40;;;;;;;9.96;100.00;96431.81;4942086;28;20046;-78
2023/03/10 07:55:24;;;;;;;0.57;0.30;;;;;;;10.18;100.00;96437.94;4936611;28;20027;-74
2023/03/10 07:57:50;;;;;;;1.25;0.20;;;;;;;10.25;100.00;96446.63;4931622;29;20131;-78
2023/03/10 08:00:16;;;;;;;0.90;0.22;;;;;;;10.35;100.00;96434.28;4932495;28;20019;-78
2023/03/10 08:02:41;;;;;;;1.45;0.38;;;;;;;10.10;100.00;96427.59;4930411;28;20038;-79
2023/03/10 08:05:08;;;;;;;2.45;0.50;;;;;;;9.87;100.00;96417.97;4932917;29;21544;-77
2023/03/10 08:07:34;;;;;;;1.98;0.40;;;;;;;9.62;100.00;96432.06;4926766;28;20110;-76
2023/03/10 08:09:59;;;;;;;1.40;0.22;;;;;;;9.39;100.00;96422.38;4937782;28;20062;-74
2023/03/10 08:12:24;;;;;;;0.38;0.20;;;;;;;9.32;100.00;96444.16;4934849;29;20034;-80
2023/03/10 08:14:51;;;;;;;0.63;0.25;;;;;;;9.09;100.00;96428.25;4932137;29;20027;-79
2023/03/10 08:17:16;;;;;;;13.43;0.50;;;;;;;9.05;100.00;96430.63;4938624;29;20032;-78
2023/03/10 08:19:42;;;;;;;2.10;0.70;;;;;;;9.07;100.00;96425.81;4929684;29;20034;-77
2023/03/10 08:22:09;;;;;;;1.95;0.45;;;;;;;9.12;100.00;96439.38;4944254;28;20032;-74
2023/03/10 08:24:36;;;;;;;2.53;0.47;;;;;;;8.83;100.00;96392.06;4935659;28;20438;-81
2023/03/10 08:27:01;;;;;;;2.97;0.60;;;;;;;8.94;100.00;96427.00;4936325;29;20123;-81
2023/03/10 08:29:26;;;;;;;2.22;0.52;;;;;;;9.06;100.00;96459.22;4931049;29;20063;-72
2023/03/10 08:31:52;;;;;;;4.25;1.17;;;;;;;9.00;100.00;96474.53;4929795;29;20034;-82
2023/03/10 08:34:17;;;;;;;1.42;0.52;;;;;;;8.62;100.00;96451.16;4941216;28;20031;-85
2023/03/10 08:36:43;;;;;;;4.20;0.93;;;;;;;8.70;100.00;96474.16;4938157;28;20028;-82
2023/03/10 08:39:10;;;;;;;1.77;0.50;;;;;;;8.59;100.00;96456.19;4931177;28;20070;-75
2023/03/10 08:41:38;;;;;;;0.25;0.10;;;;;;;8.55;100.00;96458.59;4933812;29;20051;-76
2023/03/10 08:44:04;;;;;;;0.83;0.30;;;;;;;8.64;100.00;96470.56;4932423;28;20032;-76
2023/03/10 08:46:31;;;;;;;1.33;0.40;;;;;;;8.93;100.00;96478.47;4933787;28;20035;-78
2023/03/10 08:48:57;;;;;;;2.15;0.50;;;;;;;9.08;100.00;96481.38;4935091;29;20223;-84
2023/03/10 08:51:24;;;;;;;3.22;0.20;;;;;;;9.05;100.00;96497.25;4934827;28;20098;-83
2023/03/10 08:53:51;;;;;;;2.70;0.38;;;;;;;8.86;100.00;96524.53;4933686;28;20024;-88
2023/03/10 08:56:19;;;;;;;4.47;0.70;;;;;;;8.25;100.00;96515.47;4933222;28;20442;-84
2023/03/10 08:58:46;;;;;;;5.50;0.22;;;;;;;7.97;100.00;96519.88;4971522;28;20051;-88
2023/03/10 09:01:13;;;;;;;4.10;0.70;;;;;;;8.13;100.00;96542.50;4936725;29;20028;-84
2023/03/10 09:03:40;;;;;;;6.45;0.60;;;;;;;8.01;100.00;96487.88;4939704;29;20850;-86
2023/03/10 09:06:06;;;;;;;3.53;0.70;;;;;;;9.08;100.00;96529.94;4933561;29;20509;-85
2023/03/10 09:08:32;;;;;;;2.45;0.50;;;;;;;9.33;100.00;96498.97;4931341;28;20027;-86
2023/03/10 09:10:57;;;;;;;4.32;0.63;;;;;;;9.71;100.00;96483.72;4929043;28;20095;-87
2023/03/10 09:13:23;;;;;;;8.15;0.50;;;;;;;10.00;100.00;96500.44;4939214;28;20539;-85
2023/03/10 09:15:49;;;;;;;3.40;0.50;;;;;;;9.70;100.00;96512.59;4933278;28;20114;-78
2023/03/10 09:18:16;;;;;;;6.80;0.68;;;;;;;9.84;100.00;96532.72;4940159;28;20110;-79
2023/03/10 09:20:42;;;;;;;3.72;0.45;;;;;;;9.68;100.00;96522.81;4925427;28;20418;-73
2023/03/10 09:23:10;;;;;;;3.53;0.57;;;;;;;9.84;100.00;96524.63;4928430;29;20945;-73
2023/03/10 09:25:35;;;;;;;2.72;0.63;;;;;;;9.86;100.00;96513.56;4929747;29;20024;-73
2023/03/10 09:28:01;;;;;;;4.03;0.57;;;;;;;9.57;100.00;96527.31;4930130;29;20031;-74
2023/03/10 09:30:26;;;;;;;1.55;0.40;;;;;;;9.70;100.00;96519.88;4931522;29;20058;-79
2023/03/10 09:32:52;;;;;;;4.22;1.17;;;;;;;9.60;100.00;96520.59;4931616;28;20038;-80
2023/03/10 09:35:18;;;;;;;9.48;0.93;;;;;;;9.51;100.00;96516.69;4930211;28;20485;-81
2023/03/10 09:37:43;;;;;;;4.35;0.52;;;;;;;9.51;100.00;96524.78;4934016;28;20051;-81
2023/03/10 09:40:17;;;;;;;3.80;0.50;;;;;;;9.60;100.00;96531.38;4922393;28;20035;-79
2023/03/10 09:42:56;;;;;;;4.85;0.60;;;;;;;9.48;100.00;96507.22;4929909;28;20031;-78
2023/03/10 09:46:10;;;;;;;1.60;0.50;;;;;;;9.73;100.00;96528.28;4931372;29;20486;-79
2023/03/10 09:48:44;;;;;;;4.43;1.08;;;;;;;9.74;100.00;96516.41;4936327;28;20038;-79
2023/03/10 09:51:21;;;;;;;2.78;0.50;;;;;;;9.76;100.00;96526.97;4954183;28;20122;-82
2023/03/10 09:54:15;;;;;;;4.43;0.60;;;;;;;9.85;100.00;96542.47;4943798;28;20031;-78
2023/03/10 09:56:40;;;;;;;6.70;1.38;;;;;;;9.78;100.00;96522.94;4921672;28;20490;-78
2023/03/10 09:59:45;;;;;;;4.20;1.58;;;;;;;9.77;100.00;96542.09;4933024;28;20032;-78
2023/03/10 10:02:24;;;;;;;2.58;0.60;;;;;;;9.44;100.00;96519.59;4903392;28;20043;-79
2023/03/10 10:04:54;;;;;;;3.85;0.70;;;;;;;9.21;100.00;96520.66;4905078;28;20533;-68
2023/03/10 10:07:21;;;;;;;6.82;0.73;;;;;;;9.02;100.00;96541.72;4914134;28;20115;-73
2023/03/10 10:09:46;;;;;;;3.55;0.75;;;;;;;9.02;100.00;96549.00;4928443;28;20051;-86
2023/03/10 10:12:17;;;;;;;7.72;1.15;;;;;;;9.35;100.00;96548.06;4948487;28;20512;-85
2023/03/10 10:14:44;;;;;;;3.05;0.50;;;;;;;9.54;100.00;96521.59;4959497;28;20109;-80
2023/03/10 10:17:58;;;;;;;3.15;0.40;;;;;;;9.62;100.00;96534.66;4928514;28;20031;-80
2023/03/10 10:20:30;;;;;;;3.55;0.40;;;;;;;9.44;100.00;96531.19;4927380;28;20047;-80
2023/03/10 10:22:55;;;;;;;4.22;0.30;;;;;;;9.50;100.00;96534.78;4930709;28;20120;-79
2023/03/10 10:25:23;;;;;;;1.95;0.52;;;;;;;9.50;100.00;96520.47;4977415;28;20028;-79
2023/03/10 10:27:53;;;;;;;6.47;0.50;;;;;;;9.79;100.00;96539.94;4948711;29;20074;-77
2023/03/10 10:30:39;;;;;;;2.17;0.40;;;;;;;9.93;100.00;96537.66;4934010;29;20158;-79
2023/03/10 10:33:13;;;;;;;5.03;0.60;;;;;;;10.13;100.00;96537.06;4930533;28;20078;-78
2023/03/10 10:35:41;;;;;;;4.35;0.60;;;;;;;9.62;100.00;96491.47;4931254;29;20031;-78
2023/03/10 10:38:09;;;;;;;2.22;0.40;;;;;;;9.94;100.00;96542.00;4942588;29;20565;-81
2023/03/10 10:41:01;;;;;;;5.63;0.60;;;;;;;9.92;100.00;96533.34;4928334;29;20032;-71
2023/03/10 10:43:28;;;;;;;0.80;0.25;;;;;;;9.75;100.00;96515.34;4926474;29;20027;-72
2023/03/10 10:45:56;;;;;;;2.15;0.52;;;;;;;9.91;100.00;96542.53;4929238;28;20544;-72
2023/03/10 10:48:34;;;;;;;2.28;0.60;;;;;;;9.90;100.00;96543.56;4928252;28;20043;-73
2023/03/10 10:50:59;;;;;;;3.03;0.50;;;;;;;9.84;100.00;96532.72;4928385;28;20077;-72
2023/03/10 10:53:25;;;;;;;2.30;0.60;;;;;;;9.68;100.00;96522.81;4931260;29;20389;-74
2023/03/10 10:56:20;;;;;;;2.80;0.50;;;;;;;9.78;100.00;96546.44;4927840;28;20036;-71
2023/03/10 10:59:01;;;;;;;1.45;0.50;;;;;;;9.69;100.00;96546.03;4919719;29;20071;-73
2023/03/10 11:01:44;;;;;;;5.18;0.77;;;;;;;9.39;100.00;96536.53;4930453;28;20036;-71
2023/03/10 11:04:11;;;;;;;1.95;0.40;;;;;;;9.19;100.00;96536.28;4934718;29;20036;-73
2023/03/10 11:06:37;;;;;;;2.33;0.50;;;;;;;8.89;100.00;96542.91;4931908;28;20508;-77
2023/03/10 11:09:22;;;;;;;4.45;0.40;;;;;;;8.82;100.00;96558.44;4934107;29;20031;-76
2023/03/10 11:12:02;;;;;;;5.63;0.70;;;;;;;8.90;100.00;96559.88;4924347;28;20610;-74
2023/03/10 11:15:14;;;;;;;4.10;0.30;;;;;;;8.86;100.00;96534.50;4932904;29;20039;-75
2023/03/10 11:17:59;;;;;;;1.27;0.55;;;;;;;9.03;100.00;96556.84;4921766;28;20497;-74
2023/03/10 11:20:53;;;;;;;3.13;0.50;;;;;;;9.04;100.00;96560.34;4943182;28;20043;-75
2023/03/10 11:23:24;;;;;;;3.33;0.50;;;;;;;9.13;100.00;96564.25;4939349;29;20366;-75
2023/03/10 11:26:04;;;;;;;2.45;0.65;;;;;;;9.33;100.00;96566.44;4944697;29;20521;-73
2023/03/10 11:28:50;;;;;;;1.90;0.45;;;;;;;9.58;100.00;96566.72;4949552;28;20114;-76
2023/03/10 11:31:32;;;;;;;4.03;0.47;;;;;;;9.84;100.00;96548.09;4934208;29;20069;-73
2023/03/10 11:34:31;;;;;;;1.38;0.50;;;;;;;10.48;100.00;96537.41;4949248;28;20046;-71
2023/03/10 11:36:59;;;;;;;4.03;0.50;;;;;;;11.18;100.00;96529.16;4926694;29;20038;-71